Fort Good Hope, Canada
Current Conditions -  °F | °C
As of 2:00 AM on Monday 24 Nov 2014 (Local Time) from CYVQ Reporting Station
Ice Pellets Ice Pellets  
Wind Chill: -36°   Ceiling: Unl
Heat Index: -36°   Visibility: 30mi
Dew Point: -44°   Wind: 3mph
Humidity: 67%   Direction: 60°ENE
Pressure: 30.18"   Gusts: NA
Location:  66.27°N, 128.63°W
Report Text: CYVQ 240900Z 06003KT 30SM IC SKC M38/M42 A3018 RMK SLP234
Loading
Personal Weather Stations






























Interactive Weather Map New forecast layout! Learn more

10-Day Weather Forecast

Advertisements
Track Severe Weather on mobile